| time (UTC) | temp F | wind direction | speed knots | gust knots | rain 1hr in | rain 24hr in | rain mn in | humidity % | barometer mb |
| 20260508043005 | 42 | 17 | 4.3 | 9.6 | 0.00 | 0.52 | 0.00 | 97 | 1003.3 |
| 20260508041511 | 42 | 22 | 4.3 | 7.0 | 0.00 | 0.52 | 0.00 | 97 | 1003.0 |
| 20260508040005 | 42 | 26 | 4.3 | 7.0 | 0.00 | 0.52 | 0.00 | 97 | 1003.2 |
| 20260508034502 | 42 | 39 | 7.0 | 9.6 | 0.00 | 0.52 | 0.00 | 96 | 1003.0 |
| 20260508033100 | 42 | 352 | 10.4 | 15.6 | 0.00 | 0.52 | 0.00 | 96 | 1003.2 |
| 20260508031601 | 43 | 333 | 11.3 | 16.5 | 0.00 | 0.52 | 0.00 | 94 | 1003.0 |
| 20260508030059 | 49 | 22 | 0.0 | 5.2 | 0.00 | 0.52 | 0.00 | 96 | 1002.3 |
| 20260508024603 | 49 | 353 | 0.9 | 5.2 | 0.00 | 0.52 | 0.52 | 96 | 1002.6 |
| 20260508023051 | 49 | 352 | 2.6 | 7.0 | 0.00 | 0.52 | 0.52 | 96 | 1002.5 |
| 20260508021551 | 49 | 32 | 3.5 | 5.2 | 0.00 | 0.52 | 0.52 | 96 | 1002.8 |
| 20260508014552 | 49 | 31 | 2.6 | 5.2 | 0.00 | 0.52 | 0.52 | 96 | 1002.9 |
| 20260508013049 | 49 | 38 | 1.7 | 6.1 | 0.00 | 0.52 | 0.52 | 96 | 1002.8 |
| 20260508011552 | 48 | 348 | 2.6 | 4.3 | 0.00 | 0.52 | 0.52 | 96 | 1002.6 |
| 20260508010051 | 47 | 348 | 0.9 | 2.6 | 0.00 | 0.52 | 0.52 | 96 | 1003.0 |
| 20260508004549 | 47 | 348 | 0.9 | 5.2 | 0.00 | 0.52 | 0.52 | 95 | 1003.1 |
| 20260508003049 | 47 | 349 | 1.7 | 6.1 | 0.00 | 0.52 | 0.52 | 94 | 1003.0 |
| 20260508001547 | 49 | 344 | 3.5 | 7.0 | 0.00 | 0.52 | 0.52 | 93 | 1003.1 |
| 20260508000045 | 50 | 41 | 1.7 | 4.3 | 0.00 | 0.52 | 0.52 | 95 | 1002.7 |
| 20260507234546 | 49 | 43 | 0.9 | 3.5 | 0.00 | 0.52 | 0.52 | 94 | 1002.6 |
| 20260507233045 | 48 | 41 | 7.0 | 15.6 | 0.00 | 0.52 | 0.52 | 94 | 1002.3 |
| 20260507231546 | 48 | 335 | 8.7 | 18.2 | 0.00 | 0.52 | 0.52 | 87 | 1001.9 |
| 20260507230043 | 56 | 187 | 4.3 | 8.7 | 0.00 | 0.52 | 0.52 | 91 | 1001.5 |
| 20260507224540 | 56 | 157 | 7.8 | 12.2 | 0.00 | 0.52 | 0.52 | 91 | 1001.4 |
| 20260507223039 | 56 | 157 | 8.7 | 13.0 | 0.00 | 0.52 | 0.52 | 91 | 1001.4 |
| 20260507221538 | 56 | 180 | 8.7 | 17.4 | 0.00 | 0.52 | 0.52 | 91 | 1001.5 |
| 20260507220036 | 56 | 166 | 7.8 | 17.4 | 0.00 | 0.52 | 0.52 | 92 | 1001.3 |
| 20260507214638 | 56 | 194 | 15.6 | 22.6 | 0.00 | 0.52 | 0.52 | 91 | 1001.3 |
| 20260507213036 | 56 | 159 | 9.6 | 20.0 | 0.01 | 0.52 | 0.52 | 92 | 1001.3 |
| 20260507211540 | 55 | 209 | 13.0 | 19.1 | 0.04 | 0.52 | 0.52 | 95 | 1001.3 |
| 20260507210037 | 54 | 134 | 17.4 | 21.7 | 0.09 | 0.52 | 0.52 | 95 | 1001.3 |
| 20260507204635 | 54 | 170 | 14.8 | 31.3 | 0.14 | 0.52 | 0.52 | 94 | 1001.2 |
| 20260507203036 | 55 | 141 | 20.0 | 25.2 | 0.15 | 0.51 | 0.51 | 94 | 1000.8 |
| 20260507201532 | 55 | 162 | 10.4 | 19.1 | 0.16 | 0.48 | 0.48 | 93 | 1001.7 |
| 20260507200026 | 56 | 149 | 16.5 | 26.1 | 0.14 | 0.42 | 0.42 | 93 | 1002.0 |
| 20260507194529 | 56 | 139 | 13.0 | 20.9 | 0.15 | 0.38 | 0.38 | 93 | 1003.3 |
| 20260507193032 | 57 | 147 | 16.5 | 26.9 | 0.21 | 0.36 | 0.36 | 92 | 1003.3 |
| 20260507191524 | 57 | 159 | 15.6 | 25.2 | 0.28 | 0.32 | 0.32 | 92 | 1003.5 |
| 20260507190023 | 57 | 153 | 11.3 | 24.3 | 0.28 | 0.28 | 0.28 | 93 | 1003.6 |
| 20260507184523 | 58 | 178 | 15.6 | 28.7 | 0.23 | 0.23 | 0.23 | 93 | 1003.6 |
| 20260507183039 | 57 | 151 | 17.4 | 24.3 | 0.15 | 0.15 | 0.15 | 93 | 1003.8 |
| 20260507181521 | 57 | 138 | 11.3 | 20.0 | 0.03 | 0.03 | 0.03 | 91 | 1004.1 |
| 20260507180020 | 58 | 149 | 13.0 | 23.5 | 0.00 | 0.00 | 0.00 | 88 | 1003.9 |
| 20260507174519 | 58 | 136 | 17.4 | 30.4 | 0.00 | 0.00 | 0.00 | 89 | 1002.9 |
| 20260507173018 | 58 | 138 | 23.5 | 32.2 | 0.00 | 0.00 | 0.00 | 84 | 1002.9 |
| 20260507171517 | 59 | 151 | 20.0 | 34.8 | 0.00 | 0.00 | 0.00 | 84 | 1003.0 |
| 20260507170019 | 59 | 146 | 23.5 | 36.5 | 0.00 | 0.00 | 0.00 | 83 | 1002.9 |
| 20260507164515 | 59 | 127 | 26.1 | 35.6 | 0.00 | 0.00 | 0.00 | 84 | 1003.2 |
| 20260507163015 | 61 | 145 | 29.5 | 37.4 | 0.00 | 0.00 | 0.00 | 80 | 1003.4 |
| 20260507161514 | 62 | 147 | 26.9 | 36.5 | 0.00 | 0.00 | 0.00 | 80 | 1003.7 |
| 20260507160032 | 62 | 145 | 29.5 | 41.7 | 0.00 | 0.00 | 0.00 | 79 | 1003.6 |
| 20260507154513 | 63 | 137 | 28.7 | 39.1 | 0.00 | 0.00 | 0.00 | 78 | 1004.1 |
| 20260507153009 | 63 | 149 | 25.2 | 40.8 | 0.00 | 0.00 | 0.00 | 78 | 1004.7 |
| 20260507151508 | 63 | 157 | 28.7 | 43.4 | 0.00 | 0.00 | 0.00 | 79 | 1004.9 |
| 20260507150007 | 63 | 144 | 22.6 | 36.5 | 0.00 | 0.00 | 0.00 | 79 | 1004.9 |
| 20260507144504 | 63 | 159 | 25.2 | 40.0 | 0.00 | 0.00 | 0.00 | 80 | 1005.4 |
| 20260507143006 | 62 | 162 | 23.5 | 44.3 | 0.00 | 0.00 | 0.00 | 81 | 1005.8 |
| 20260507141506 | 63 | 161 | 24.3 | 43.4 | 0.00 | 0.00 | 0.00 | 80 | 1005.6 |
| 20260507140002 | 63 | 155 | 23.5 | 44.3 | 0.00 | 0.00 | 0.00 | 79 | 1005.8 |
| 20260507134600 | 63 | 156 | 29.5 | 48.7 | 0.00 | 0.00 | 0.00 | 80 | 1005.9 |
| 20260507133111 | 62 | 151 | 25.2 | 43.4 | 0.00 | 0.00 | 0.00 | 81 | 1006.0 |
| 20260507131557 | 62 | 147 | 26.9 | 40.0 | 0.00 | 0.00 | 0.00 | 81 | 1005.9 |
| 20260507130108 | 62 | 143 | 26.9 | 43.4 | 0.00 | 0.00 | 0.00 | 82 | 1006.3 |
| 20260507124632 | 61 | 150 | 26.9 | 34.8 | 0.00 | 0.00 | 0.00 | 84 | 1006.3 |
| 20260507123052 | 59 | 159 | 24.3 | 39.1 | 0.00 | 0.00 | 0.00 | 85 | 1006.7 |
| 20260507121551 | 59 | 139 | 27.8 | 41.7 | 0.00 | 0.00 | 0.00 | 85 | 1007.2 |
| 20260507120049 | 58 | 148 | 20.9 | 32.2 | 0.00 | 0.00 | 0.00 | 89 | 1008.0 |
| 20260507114605 | 54 | 140 | 23.5 | 29.5 | 0.00 | 0.00 | 0.00 | 87 | 1008.4 |
| 20260507113044 | 55 | 157 | 15.6 | 25.2 | 0.00 | 0.00 | 0.00 | 92 | 1008.7 |
| 20260507111543 | 52 | 144 | 10.4 | 22.6 | 0.00 | 0.00 | 0.00 | 92 | 1009.8 |
| 20260507110045 | 56 | 148 | 17.4 | 22.6 | 0.00 | 0.00 | 0.00 | 89 | 1009.2 |
| 20260507104547 | 54 | 141 | 17.4 | 22.6 | 0.00 | 0.00 | 0.00 | 93 | 1009.4 |
| 20260507103036 | 53 | 138 | 17.4 | 24.3 | 0.00 | 0.00 | 0.00 | 92 | 1010.2 |
| 20260507101533 | 54 | 142 | 21.7 | 29.5 | 0.00 | 0.00 | 0.00 | 92 | 1009.9 |
| 20260507100030 | 55 | 134 | 21.7 | 33.9 | 0.00 | 0.00 | 0.00 | 90 | 1009.8 |
| 20260507094526 | 56 | 139 | 23.5 | 30.4 | 0.00 | 0.00 | 0.00 | 89 | 1010.2 |
| 20260507093034 | 56 | 155 | 19.1 | 29.5 | 0.00 | 0.00 | 0.00 | 91 | 1010.6 |
| 20260507091536 | 57 | 152 | 14.8 | 24.3 | 0.00 | 0.00 | 0.00 | 91 | 1010.7 |
| 20260507090023 | 56 | 140 | 14.8 | 23.5 | 0.00 | 0.00 | 0.00 | 91 | 1010.6 |
| 20260507084524 | 56 | 144 | 11.3 | 23.5 | 0.00 | 0.00 | 0.00 | 90 | 1010.3 |
| 20260507083017 | 55 | 167 | 12.2 | 18.2 | 0.00 | 0.00 | 0.00 | 89 | 1010.7 |
| 20260507081514 | 56 | 163 | 8.7 | 18.2 | 0.00 | 0.00 | 0.00 | 86 | 1011.1 |
| 20260507080012 | 57 | 162 | 11.3 | 21.7 | 0.00 | 0.00 | 0.00 | 84 | 1011.1 |
| 20260507074509 | 58 | 172 | 16.5 | 26.1 | 0.00 | 0.00 | 0.00 | 83 | 1011.0 |
| 20260507073006 | 59 | 151 | 16.5 | 24.3 | 0.00 | 0.00 | 0.00 | 81 | 1010.9 |
| 20260507071504 | 59 | 159 | 17.4 | 24.3 | 0.00 | 0.00 | 0.00 | 80 | 1011.5 |
| 20260507070116 | 60 | 136 | 13.0 | 24.3 | 0.00 | 0.00 | 0.00 | 79 | 1011.4 |
| 20260507064605 | 61 | 164 | 15.6 | 22.6 | 0.00 | 0.00 | 0.00 | 76 | 1012.0 |
| 20260507063100 | 61 | 164 | 15.6 | 26.1 | 0.00 | 0.00 | 0.00 | 74 | 1012.0 |
| 20260507061554 | 62 | 155 | 18.2 | 28.7 | 0.00 | 0.00 | 0.00 | 70 | 1012.3 |
| 20260507060053 | 62 | 161 | 20.9 | 36.5 | 0.00 | 0.00 | 0.00 | 69 | 1012.2 |
| 20260507054554 | 61 | 157 | 15.6 | 27.8 | 0.00 | 0.00 | 0.00 | 69 | 1012.7 |
| 20260507053050 | 61 | 152 | 15.6 | 30.4 | 0.00 | 0.00 | 0.00 | 69 | 1012.9 |
| 20260507051547 | 62 | 173 | 16.5 | 27.8 | 0.00 | 0.00 | 0.00 | 68 | 1013.3 |
| 20260507050044 | 63 | 143 | 14.8 | 23.5 | 0.00 | 0.00 | 0.00 | 61 | 1013.4 |
| 20260507044544 | 63 | 160 | 13.9 | 30.4 | 0.00 | 0.00 | 0.00 | 60 | 1013.5 |